createdAt,value
2022-11-01T00:01:57.330Z,100606.00
2022-11-01T00:04:25.453Z,100605.00
2022-11-01T00:06:53.565Z,100610.00
2022-11-01T00:09:22.318Z,100600.00
2022-11-01T00:11:50.379Z,100597.00
2022-11-01T00:14:20.050Z,100593.00
2022-11-01T00:16:49.414Z,100598.00
2022-11-01T00:19:17.293Z,100604.00
2022-11-01T00:21:45.114Z,100587.00
2022-11-01T00:24:13.285Z,100569.00
2022-11-01T00:26:41.226Z,100581.00
2022-11-01T00:29:09.140Z,100579.00
2022-11-01T00:31:36.914Z,100572.00
2022-11-01T00:34:06.881Z,100576.00
2022-11-01T00:36:35.795Z,100578.00
2022-11-01T00:39:03.677Z,100569.00
2022-11-01T00:41:31.469Z,100586.00
2022-11-01T00:43:59.389Z,100574.00
2022-11-01T00:46:27.359Z,100576.00
2022-11-01T00:48:55.182Z,100568.00
2022-11-01T00:51:24.314Z,100567.00
2022-11-01T00:53:52.488Z,100567.00
2022-11-01T00:56:20.324Z,100568.00
2022-11-01T00:58:48.064Z,100558.00
2022-11-01T01:01:16.000Z,100547.00
2022-11-01T01:03:43.873Z,100544.00
2022-11-01T01:06:11.651Z,100556.00
2022-11-01T01:08:40.789Z,100559.00
2022-11-01T01:11:08.600Z,100549.00
2022-11-01T01:13:36.407Z,100537.00
2022-11-01T01:16:09.153Z,100525.00
2022-11-01T01:18:36.995Z,100519.00
2022-11-01T01:21:06.221Z,100525.00
2022-11-01T01:23:34.265Z,100522.00
2022-11-01T01:26:07.014Z,100513.00
2022-11-01T01:28:36.697Z,100519.00
2022-11-01T01:31:08.541Z,100518.00
2022-11-01T01:33:36.867Z,100516.00
2022-11-01T01:36:06.609Z,100510.00
2022-11-01T01:38:34.549Z,100515.00
2022-11-01T01:41:17.763Z,100513.00
2022-11-01T01:43:45.870Z,100507.00
2022-11-01T01:46:13.921Z,100503.00
2022-11-01T01:48:43.669Z,100501.00
2022-11-01T01:51:15.308Z,100492.00
2022-11-01T01:53:46.454Z,100486.00
2022-11-01T01:56:18.943Z,100490.00
2022-11-01T01:58:50.688Z,100475.00
2022-11-01T02:01:18.731Z,100476.00
2022-11-01T02:03:46.630Z,100459.00
2022-11-01T02:06:18.881Z,100465.00
2022-11-01T02:08:52.701Z,100469.00
2022-11-01T02:11:22.111Z,100456.00
2022-11-01T02:13:50.354Z,100465.00
2022-11-01T02:16:43.900Z,100450.00
2022-11-01T02:19:46.808Z,100452.00
2022-11-01T02:22:21.752Z,100437.00
2022-11-01T02:25:10.621Z,100441.00
2022-11-01T02:27:52.749Z,100427.00
2022-11-01T02:30:22.467Z,100440.00
2022-11-01T02:33:04.380Z,100431.00
2022-11-01T02:35:44.019Z,100446.00
2022-11-01T02:38:19.731Z,100431.00
2022-11-01T02:40:53.660Z,100432.00
2022-11-01T02:43:25.542Z,100427.00
2022-11-01T02:45:53.569Z,100418.00
2022-11-01T02:48:24.546Z,100435.00
2022-11-01T02:50:55.289Z,100430.00
2022-11-01T02:53:23.175Z,100418.00
2022-11-01T02:55:54.381Z,100422.00
2022-11-01T02:58:25.453Z,100425.00
2022-11-01T03:00:55.612Z,100423.00
2022-11-01T03:03:27.657Z,100415.00
2022-11-01T03:06:03.729Z,100417.00
2022-11-01T03:08:36.435Z,100418.00
2022-11-01T03:11:08.164Z,100424.00
2022-11-01T03:13:54.221Z,100413.00
2022-11-01T03:16:30.233Z,100428.00
2022-11-01T03:19:06.823Z,100421.00
2022-11-01T03:21:40.982Z,100421.00
2022-11-01T03:24:17.910Z,100415.00
2022-11-01T03:26:49.561Z,100409.00
2022-11-01T03:29:20.151Z,100413.00
2022-11-01T03:31:50.738Z,100398.00
2022-11-01T03:34:21.302Z,100405.00
2022-11-01T03:36:53.842Z,100409.00
2022-11-01T03:39:26.209Z,100405.00
2022-11-01T03:41:59.059Z,100419.00
2022-11-01T03:44:31.938Z,100394.00
2022-11-01T03:46:59.792Z,100401.00
2022-11-01T03:49:28.972Z,100406.00
2022-11-01T03:51:57.164Z,100408.00
2022-11-01T03:54:27.145Z,100392.00
2022-11-01T03:56:55.045Z,100399.00
2022-11-01T03:59:23.488Z,100393.00
2022-11-01T04:01:51.412Z,100383.00
2022-11-01T04:04:19.474Z,100379.00
2022-11-01T04:06:48.671Z,100370.00
2022-11-01T04:09:16.425Z,100352.00
2022-11-01T04:11:44.249Z,100391.00
2022-11-01T04:14:29.364Z,100388.00
2022-11-01T04:17:14.745Z,100375.00
2022-11-01T04:20:00.125Z,100361.00
2022-11-01T04:22:29.379Z,100369.00
2022-11-01T04:24:57.152Z,100363.00
2022-11-01T04:27:24.969Z,100343.00
2022-11-01T04:29:52.742Z,100356.00
2022-11-01T04:32:20.534Z,100346.00
2022-11-01T04:34:48.427Z,100344.00
2022-11-01T04:37:16.195Z,100356.00
2022-11-01T04:39:45.430Z,100367.00
2022-11-01T04:42:13.223Z,100385.00
2022-11-01T04:44:41.019Z,100388.00
2022-11-01T04:47:08.781Z,100389.00
2022-11-01T04:49:36.566Z,100385.00
2022-11-01T04:52:04.613Z,100400.00
2022-11-01T04:54:33.497Z,100401.00
2022-11-01T04:57:02.823Z,100403.00
2022-11-01T04:59:30.684Z,100409.00
2022-11-01T05:01:58.650Z,100393.00
2022-11-01T05:04:26.558Z,100383.00
2022-11-01T05:06:54.382Z,100392.00
2022-11-01T05:09:22.170Z,100411.00
2022-11-01T05:11:49.952Z,100402.00
2022-11-01T05:14:19.194Z,100401.00
2022-11-01T05:16:46.928Z,100414.00
2022-11-01T05:19:14.729Z,100399.00
2022-11-01T05:21:42.542Z,100396.00
2022-11-01T05:24:10.348Z,100402.00
2022-11-01T05:26:38.226Z,100375.00
2022-11-01T05:29:09.074Z,100401.00
2022-11-01T05:31:47.715Z,100403.00
2022-11-01T05:34:15.540Z,100407.00
2022-11-01T05:36:43.301Z,100401.00
2022-11-01T05:39:11.362Z,100405.00
2022-11-01T05:41:40.573Z,100410.00
2022-11-01T05:44:08.437Z,100408.00
2022-11-01T05:46:36.417Z,100418.00
2022-11-01T05:49:05.653Z,100420.00
2022-11-01T05:51:33.429Z,100409.00
2022-11-01T05:54:01.267Z,100412.00
2022-11-01T05:56:29.731Z,100409.00
2022-11-01T05:58:57.497Z,100433.00
2022-11-01T06:01:25.493Z,100431.00
2022-11-01T06:03:53.549Z,100433.00
2022-11-01T06:06:22.682Z,100425.00
2022-11-01T06:08:50.473Z,100431.00
2022-11-01T06:11:18.392Z,100431.00
2022-11-01T06:13:46.203Z,100446.00
2022-11-01T06:16:13.972Z,100445.00
2022-11-01T06:18:41.730Z,100437.00
2022-11-01T06:21:09.553Z,100439.00
2022-11-01T06:23:38.678Z,100439.00
2022-11-01T06:26:07.466Z,100423.00
2022-11-01T06:28:35.364Z,100429.00
2022-11-01T06:33:36.530Z,100429.00
2022-11-01T06:36:04.786Z,100437.00
2022-11-01T06:38:32.743Z,100441.00
2022-11-01T06:41:01.921Z,100442.00
2022-11-01T06:43:29.674Z,100442.00
2022-11-01T06:46:00.672Z,100448.00
2022-11-01T06:48:29.230Z,100462.00
2022-11-01T06:50:57.089Z,100468.00
2022-11-01T06:53:26.122Z,100463.00
2022-11-01T06:55:53.893Z,100462.00
2022-11-01T06:58:23.022Z,100466.00
2022-11-01T07:00:53.734Z,100475.00
2022-11-01T07:03:21.938Z,100471.00
2022-11-01T07:05:50.518Z,100474.00
2022-11-01T07:08:18.498Z,100491.00
2022-11-01T07:10:46.312Z,100490.00
2022-11-01T07:13:15.000Z,100485.00
2022-11-01T07:15:44.308Z,100491.00
2022-11-01T07:18:12.177Z,100489.00
2022-11-01T07:20:42.538Z,100499.00
2022-11-01T07:23:13.434Z,100492.00
2022-11-01T07:25:41.402Z,100496.00
2022-11-01T07:28:09.454Z,100514.00
2022-11-01T07:30:37.370Z,100513.00
2022-11-01T07:33:06.849Z,100516.00
2022-11-01T07:35:35.580Z,100525.00
2022-11-01T07:38:06.499Z,100515.00
2022-11-01T07:40:39.791Z,100510.00
2022-11-01T07:43:08.228Z,100500.00
2022-11-01T07:45:36.582Z,100518.00
2022-11-01T07:48:10.102Z,100524.00
2022-11-01T07:50:38.910Z,100531.00
2022-11-01T07:53:09.117Z,100535.00
2022-11-01T07:55:38.140Z,100538.00
2022-11-01T07:58:06.692Z,100524.00
2022-11-01T08:03:11.022Z,100523.00
2022-11-01T08:05:39.713Z,100532.00
2022-11-01T08:08:08.255Z,100528.00
2022-11-01T08:10:37.116Z,100535.00
2022-11-01T08:13:06.999Z,100529.00
2022-11-01T08:15:35.334Z,100519.00
2022-11-01T08:18:03.831Z,100544.00
2022-11-01T08:20:33.413Z,100533.00
2022-11-01T08:23:01.507Z,100541.00
2022-11-01T08:25:29.758Z,100547.00
2022-11-01T08:28:02.197Z,100546.00
2022-11-01T08:30:30.011Z,100538.00
2022-11-01T08:33:02.006Z,100528.00
2022-11-01T08:35:31.031Z,100538.00
2022-11-01T08:38:01.200Z,100540.00
2022-11-01T08:43:21.652Z,100566.00
2022-11-01T08:45:50.475Z,100565.00
2022-11-01T08:48:18.323Z,100572.00
2022-11-01T08:50:46.120Z,100574.00
2022-11-01T08:53:16.146Z,100580.00
2022-11-01T08:55:44.030Z,100599.00
2022-11-01T08:58:12.336Z,100597.00
2022-11-01T09:00:40.178Z,100592.00
2022-11-01T09:03:07.993Z,100588.00
2022-11-01T09:05:37.129Z,100589.00
2022-11-01T09:08:05.684Z,100581.00
2022-11-01T09:10:35.119Z,100576.00
2022-11-01T09:13:03.421Z,100580.00
2022-11-01T09:15:31.745Z,100575.00
2022-11-01T09:17:59.754Z,100593.00
2022-11-01T09:20:28.300Z,100583.00
2022-11-01T09:22:56.284Z,100575.00
2022-11-01T09:25:24.810Z,100594.00
2022-11-01T09:27:57.181Z,100587.00
2022-11-01T09:30:25.003Z,100597.00
2022-11-01T09:32:52.799Z,100596.00
2022-11-01T09:35:20.615Z,100605.00
2022-11-01T09:37:48.430Z,100602.00
2022-11-01T09:40:17.321Z,100607.00
2022-11-01T09:42:47.089Z,100607.00
2022-11-01T09:45:19.863Z,100602.00
2022-11-01T09:47:51.453Z,100617.00
2022-11-01T09:50:23.569Z,100613.00
2022-11-01T09:52:52.508Z,100606.00
2022-11-01T09:55:33.900Z,100615.00
2022-11-01T09:58:08.232Z,100626.00
2022-11-01T10:00:45.650Z,100621.00
2022-11-01T10:03:34.892Z,100622.00
2022-11-01T10:06:10.322Z,100626.00
2022-11-01T10:08:50.335Z,100615.00
2022-11-01T10:11:35.193Z,100612.00
2022-11-01T10:14:13.190Z,100608.00
2022-11-01T10:16:49.251Z,100613.00
2022-11-01T10:19:19.078Z,100622.00
2022-11-01T10:21:49.978Z,100627.00
2022-11-01T10:24:23.956Z,100632.00
2022-11-01T10:26:58.239Z,100637.00
2022-11-01T10:29:35.169Z,100632.00
2022-11-01T10:32:10.479Z,100636.00
2022-11-01T10:34:40.672Z,100643.00
2022-11-01T10:37:20.096Z,100658.00
2022-11-01T10:39:55.515Z,100653.00
2022-11-01T10:42:29.776Z,100651.00
2022-11-01T10:45:01.276Z,100654.00
2022-11-01T10:47:31.125Z,100655.00
2022-11-01T10:50:07.343Z,100663.00
2022-11-01T10:52:47.694Z,100669.00
2022-11-01T10:55:19.073Z,100671.00
2022-11-01T10:57:52.631Z,100658.00
2022-11-01T11:00:22.136Z,100662.00
2022-11-01T11:02:55.344Z,100663.00
2022-11-01T11:05:25.345Z,100657.00
2022-11-01T11:07:53.386Z,100666.00
2022-11-01T11:10:24.910Z,100672.00
2022-11-01T11:12:57.327Z,100668.00
2022-11-01T11:15:40.769Z,100677.00
2022-11-01T11:18:20.639Z,100679.00
2022-11-01T11:20:53.069Z,100673.00
2022-11-01T11:23:23.467Z,100680.00
2022-11-01T11:25:51.804Z,100677.00
2022-11-01T11:28:25.613Z,100675.00
2022-11-01T11:30:56.375Z,100680.00
2022-11-01T11:33:25.697Z,100696.00
2022-11-01T11:35:58.401Z,100690.00
2022-11-01T11:38:43.450Z,100701.00
2022-11-01T11:41:12.993Z,100717.00
2022-11-01T11:43:42.542Z,100704.00
2022-11-01T11:46:19.136Z,100707.00
2022-11-01T11:48:53.583Z,100718.00
2022-11-01T11:51:22.268Z,100717.00
2022-11-01T11:54:11.157Z,100710.00
2022-11-01T11:56:38.945Z,100718.00
2022-11-01T11:59:17.735Z,100720.00
2022-11-01T12:01:47.807Z,100718.00
2022-11-01T12:04:19.283Z,100720.00
2022-11-01T12:06:47.691Z,100733.00
2022-11-01T12:09:42.389Z,100739.00
2022-11-01T12:12:18.096Z,100745.00
2022-11-01T12:14:46.031Z,100749.00
2022-11-01T12:17:32.938Z,100760.00
2022-11-01T12:20:09.777Z,100737.00
2022-11-01T12:22:40.912Z,100746.00
2022-11-01T12:25:14.527Z,100747.00
2022-11-01T12:27:51.245Z,100745.00
2022-11-01T12:30:22.745Z,100746.00
2022-11-01T12:32:52.931Z,100756.00
2022-11-01T12:35:29.706Z,100744.00
2022-11-01T12:38:17.095Z,100751.00
2022-11-01T12:40:46.445Z,100757.00
2022-11-01T12:43:17.210Z,100746.00
2022-11-01T12:45:51.336Z,100769.00
2022-11-01T12:48:25.786Z,100769.00
2022-11-01T12:50:59.404Z,100773.00
2022-11-01T12:53:31.781Z,100770.00
2022-11-01T12:56:00.168Z,100776.00
2022-11-01T12:58:33.513Z,100778.00
2022-11-01T13:01:21.656Z,100792.00
2022-11-01T13:03:56.692Z,100787.00
2022-11-01T13:07:12.744Z,100786.00
2022-11-01T13:09:50.228Z,100774.00
2022-11-01T13:12:28.558Z,100777.00
2022-11-01T13:15:08.374Z,100785.00
2022-11-01T13:17:45.683Z,100787.00
2022-11-01T13:20:41.741Z,100790.00
2022-11-01T13:23:20.100Z,100802.00
2022-11-01T13:25:53.560Z,100795.00
2022-11-01T13:28:45.752Z,100775.00
2022-11-01T13:31:23.663Z,100782.00
2022-11-01T13:33:59.458Z,100780.00
2022-11-01T13:36:34.046Z,100781.00
2022-11-01T13:39:11.258Z,100786.00
2022-11-01T13:41:45.400Z,100793.00
2022-11-01T13:44:17.097Z,100793.00
2022-11-01T13:47:00.470Z,100792.00
2022-11-01T13:49:44.836Z,100793.00
2022-11-01T13:52:19.481Z,100790.00
2022-11-01T13:54:54.699Z,100789.00
2022-11-01T13:57:25.833Z,100805.00
2022-11-01T13:59:56.673Z,100797.00
2022-11-01T14:02:59.214Z,100806.00
2022-11-01T14:05:38.473Z,100806.00
2022-11-01T14:08:16.196Z,100803.00
2022-11-01T14:10:50.453Z,100790.00
2022-11-01T14:13:29.832Z,100802.00
2022-11-01T14:16:22.618Z,100811.00
2022-11-01T14:19:22.841Z,100811.00
2022-11-01T14:21:54.155Z,100812.00
2022-11-01T14:24:33.822Z,100813.00
2022-11-01T14:27:34.738Z,100820.00
2022-11-01T14:30:03.182Z,100812.00
2022-11-01T14:32:32.897Z,100820.00
2022-11-01T14:35:06.904Z,100822.00
2022-11-01T14:37:40.842Z,100816.00
2022-11-01T14:40:22.955Z,100823.00
2022-11-01T14:42:54.750Z,100827.00
2022-11-01T14:45:35.703Z,100814.00
2022-11-01T14:48:11.115Z,100826.00
2022-11-01T14:50:50.377Z,100830.00
2022-11-01T14:53:27.903Z,100839.00
2022-11-01T14:56:14.392Z,100843.00
2022-11-01T14:58:44.052Z,100845.00
2022-11-01T15:01:14.856Z,100848.00
2022-11-01T15:03:46.461Z,100848.00
2022-11-01T15:06:24.027Z,100834.00
2022-11-01T15:08:52.635Z,100854.00
2022-11-01T15:11:20.743Z,100858.00
2022-11-01T15:13:53.285Z,100860.00
2022-11-01T15:16:23.478Z,100854.00
2022-11-01T15:18:54.900Z,100846.00
2022-11-01T15:21:28.801Z,100857.00
2022-11-01T15:24:00.026Z,100856.00
2022-11-01T15:26:31.704Z,100853.00
2022-11-01T15:29:03.843Z,100854.00
2022-11-01T15:31:34.290Z,100850.00
2022-11-01T15:34:04.732Z,100849.00
2022-11-01T15:36:35.109Z,100872.00
2022-11-01T15:39:05.044Z,100867.00
2022-11-01T15:41:34.719Z,100870.00
2022-11-01T15:44:06.183Z,100869.00
2022-11-01T15:46:39.199Z,100868.00
2022-11-01T15:49:10.836Z,100875.00
2022-11-01T15:51:43.273Z,100878.00
2022-11-01T15:54:21.088Z,100872.00
2022-11-01T15:56:54.118Z,100870.00
2022-11-01T15:59:29.097Z,100877.00
2022-11-01T16:02:00.902Z,100869.00
2022-11-01T16:04:33.445Z,100884.00
2022-11-01T16:07:05.644Z,100887.00
2022-11-01T16:09:39.235Z,100881.00
2022-11-01T16:12:15.736Z,100866.00
2022-11-01T16:14:45.395Z,100892.00
2022-11-01T16:17:31.501Z,100884.00
2022-11-01T16:19:59.617Z,100886.00
2022-11-01T16:22:35.664Z,100886.00
2022-11-01T16:25:16.447Z,100889.00
2022-11-01T16:28:00.912Z,100898.00
2022-11-01T16:30:45.008Z,100901.00
2022-11-01T16:33:25.956Z,100903.00
2022-11-01T16:35:56.837Z,100898.00
2022-11-01T16:38:43.341Z,100908.00
2022-11-01T16:41:20.330Z,100908.00
2022-11-01T16:43:49.233Z,100912.00
2022-11-01T16:46:19.807Z,100918.00
2022-11-01T16:48:56.210Z,100922.00
2022-11-01T16:51:27.040Z,100920.00
2022-11-01T16:53:55.598Z,100923.00
2022-11-01T16:56:41.999Z,100923.00
2022-11-01T16:59:23.102Z,100916.00
2022-11-01T17:01:54.972Z,100920.00
2022-11-01T17:04:23.660Z,100921.00
2022-11-01T17:06:52.429Z,100911.00
2022-11-01T17:09:22.715Z,100922.00
2022-11-01T17:11:53.420Z,100922.00
2022-11-01T17:14:22.737Z,100925.00
2022-11-01T17:16:53.594Z,100917.00
2022-11-01T17:19:25.513Z,100922.00
2022-11-01T17:21:57.678Z,100928.00
2022-11-01T17:24:27.281Z,100925.00
2022-11-01T17:26:58.982Z,100915.00
2022-11-01T17:29:26.806Z,100910.00
2022-11-01T17:31:56.050Z,100919.00
2022-11-01T17:34:26.371Z,100921.00
2022-11-01T17:36:54.438Z,100916.00
2022-11-01T17:39:22.625Z,100911.00
2022-11-01T17:41:50.441Z,100933.00
2022-11-01T17:44:18.457Z,100930.00
2022-11-01T17:46:46.270Z,100935.00
2022-11-01T17:49:17.399Z,100924.00
2022-11-01T17:51:45.211Z,100927.00
2022-11-01T17:54:13.091Z,100936.00
2022-11-01T17:56:40.938Z,100939.00
2022-11-01T17:59:09.157Z,100926.00
2022-11-01T18:01:38.619Z,100927.00
2022-11-01T18:04:07.358Z,100924.00
2022-11-01T18:06:37.033Z,100934.00
2022-11-01T18:09:18.969Z,100927.00
2022-11-01T18:11:53.795Z,100930.00
2022-11-01T18:14:32.290Z,100942.00
2022-11-01T18:17:10.090Z,100938.00
2022-11-01T18:19:52.284Z,100948.00
2022-11-01T18:22:30.896Z,100933.00
2022-11-01T18:25:03.229Z,100934.00
2022-11-01T18:27:35.003Z,100940.00
2022-11-01T18:30:08.602Z,100946.00
2022-11-01T18:32:41.231Z,100933.00
2022-11-01T18:35:20.935Z,100934.00
2022-11-01T18:37:57.012Z,100944.00
2022-11-01T18:40:30.754Z,100937.00
2022-11-01T18:42:58.530Z,100937.00
2022-11-01T18:45:31.197Z,100941.00
2022-11-01T18:48:12.714Z,100939.00
2022-11-01T18:50:40.616Z,100937.00
2022-11-01T18:53:14.475Z,100935.00
2022-11-01T18:55:44.419Z,100945.00
2022-11-01T18:58:17.301Z,100944.00
2022-11-01T19:00:45.617Z,100934.00
2022-11-01T19:03:16.977Z,100943.00
2022-11-01T19:05:46.277Z,100933.00
2022-11-01T19:08:24.425Z,100950.00
2022-11-01T19:10:53.544Z,100939.00
2022-11-01T19:13:27.119Z,100931.00
2022-11-01T19:15:57.461Z,100934.00
2022-11-01T19:18:25.642Z,100931.00
2022-11-01T19:20:56.991Z,100928.00
2022-11-01T19:23:34.895Z,100933.00
2022-11-01T19:26:04.202Z,100944.00
2022-11-01T19:28:35.924Z,100948.00
2022-11-01T19:31:09.292Z,100949.00
2022-11-01T19:33:40.068Z,100951.00
2022-11-01T19:36:15.320Z,100958.00
2022-11-01T19:38:45.248Z,100942.00
2022-11-01T19:41:15.886Z,100946.00
2022-11-01T19:43:43.684Z,100947.00
2022-11-01T19:46:14.449Z,100954.00
2022-11-01T19:48:42.331Z,100953.00
2022-11-01T19:51:16.069Z,100942.00
2022-11-01T19:53:45.456Z,100957.00
2022-11-01T19:56:15.179Z,100961.00
2022-11-01T19:58:45.408Z,100965.00
2022-11-01T20:01:34.445Z,100971.00
2022-11-01T20:04:05.218Z,100967.00
2022-11-01T20:06:37.645Z,100959.00
2022-11-01T20:09:12.476Z,100967.00
2022-11-01T20:11:40.337Z,100972.00
2022-11-01T20:14:08.235Z,100980.00
2022-11-01T20:16:36.061Z,100971.00
2022-11-01T20:19:03.907Z,100972.00
2022-11-01T20:21:32.294Z,100984.00
2022-11-01T20:24:00.218Z,100984.00
2022-11-01T20:26:29.400Z,100985.00
2022-11-01T20:28:57.354Z,100995.00
2022-11-01T20:31:26.570Z,100997.00
2022-11-01T20:33:54.575Z,100993.00
2022-11-01T20:36:22.997Z,100992.00
2022-11-01T20:38:51.380Z,100993.00
2022-11-01T20:41:22.311Z,100988.00
2022-11-01T20:43:52.396Z,100997.00
2022-11-01T20:46:20.197Z,100996.00
2022-11-01T20:48:48.449Z,101002.00
2022-11-01T20:51:16.256Z,101005.00
2022-11-01T20:53:44.129Z,101005.00
2022-11-01T20:56:12.102Z,101018.00
2022-11-01T20:58:40.891Z,101017.00
2022-11-01T21:01:18.396Z,101021.00
2022-11-01T21:03:46.638Z,101022.00
2022-11-01T21:06:16.697Z,101019.00
2022-11-01T21:08:47.138Z,101022.00
2022-11-01T21:11:22.879Z,101025.00
2022-11-01T21:13:52.235Z,101024.00
2022-11-01T21:16:29.400Z,101024.00
2022-11-01T21:19:02.119Z,101019.00
2022-11-01T21:21:46.561Z,101021.00
2022-11-01T21:24:33.243Z,101022.00
2022-11-01T21:27:22.449Z,101021.00
2022-11-01T21:29:51.614Z,101011.00
2022-11-01T21:32:30.568Z,101016.00
2022-11-01T21:34:58.962Z,101018.00
2022-11-01T21:37:30.713Z,101016.00
2022-11-01T21:40:05.692Z,101018.00
2022-11-01T21:42:36.288Z,101014.00
2022-11-01T21:45:29.597Z,101021.00
2022-11-01T21:48:01.965Z,101013.00
2022-11-01T21:50:29.970Z,101017.00
2022-11-01T21:52:57.728Z,101016.00
2022-11-01T21:55:25.494Z,101008.00
2022-11-01T21:57:53.440Z,101016.00
2022-11-01T22:00:21.269Z,101005.00
2022-11-01T22:02:49.066Z,101017.00
2022-11-01T22:05:18.169Z,101000.00
2022-11-01T22:07:45.872Z,100998.00
2022-11-01T22:10:13.596Z,100996.00
2022-11-01T22:12:41.313Z,100993.00
2022-11-01T22:15:09.839Z,100992.00
2022-11-01T22:17:37.638Z,100995.00
2022-11-01T22:20:06.331Z,100988.00
2022-11-01T22:22:35.407Z,100996.00
2022-11-01T22:25:03.247Z,100993.00
2022-11-01T22:27:30.952Z,100989.00
2022-11-01T22:29:58.831Z,100999.00
2022-11-01T22:32:26.594Z,100983.00
2022-11-01T22:34:54.331Z,100985.00
2022-11-01T22:37:22.077Z,100996.00
2022-11-01T22:39:53.117Z,100991.00
2022-11-01T22:42:21.872Z,100984.00
2022-11-01T22:44:51.078Z,100983.00
2022-11-01T22:47:23.541Z,100983.00
2022-11-01T22:49:53.580Z,100976.00
2022-11-01T22:52:30.160Z,100985.00
2022-11-01T22:55:03.778Z,100980.00
2022-11-01T22:57:35.819Z,100982.00
2022-11-01T23:00:24.551Z,100981.00
2022-11-01T23:02:54.639Z,100977.00
2022-11-01T23:05:24.982Z,100978.00
2022-11-01T23:07:54.637Z,100969.00
2022-11-01T23:10:26.562Z,100967.00
2022-11-01T23:13:16.697Z,100970.00
2022-11-01T23:15:44.908Z,100969.00
2022-11-01T23:18:17.365Z,100950.00
2022-11-01T23:20:46.095Z,100959.00
2022-11-01T23:23:17.978Z,100965.00
2022-11-01T23:25:47.199Z,100945.00
2022-11-01T23:28:15.162Z,100958.00
2022-11-01T23:30:44.692Z,100957.00
2022-11-01T23:33:13.526Z,100956.00
2022-11-01T23:35:41.836Z,100950.00
2022-11-01T23:38:22.555Z,100950.00
2022-11-01T23:40:56.039Z,100939.00
2022-11-01T23:43:34.204Z,100954.00
2022-11-01T23:46:02.769Z,100956.00
2022-11-01T23:48:30.526Z,100958.00
2022-11-01T23:50:59.023Z,100944.00
2022-11-01T23:53:33.058Z,100951.00
2022-11-01T23:56:04.437Z,100938.00
2022-11-01T23:58:33.774Z,100941.00
